Time;durP1;ratioP1;P1;durP2;ratioP2;P2;SDS_P1;SDS_P2;PMS_P1;PMS_P2;Temp;Humidity;BMP_temperature;BMP_pressure;BME280_temperature;BME280_humidity;BME280_pressure;Samples;Min_cycle;Max_cycle;Signal;HPM_P1;HPM_P2
2021/12/03 00:02:23;;;;;;;6.85;2.85;;;-0.90;99.90;;;;;;5070534;28;20017;-80
2021/12/03 00:04:49;;;;;;;5.90;2.80;;;-0.80;99.90;;;;;;5076297;28;20110;-82
2021/12/03 00:07:15;;;;;;;7.28;3.30;;;-0.70;99.90;;;;;;5048061;28;20492;-81
2021/12/03 00:09:41;;;;;;;6.32;3.75;;;-0.60;99.90;;;;;;5064788;28;20052;-77
2021/12/03 00:12:07;;;;;;;7.13;3.10;;;-0.50;99.90;;;;;;5067082;28;20376;-78
2021/12/03 00:14:34;;;;;;;8.95;3.45;;;-0.50;99.90;;;;;;5061970;28;20025;-80
2021/12/03 00:17:00;;;;;;;7.15;3.63;;;-0.40;99.90;;;;;;5066049;28;20452;-79
2021/12/03 00:19:26;;;;;;;7.05;3.15;;;-0.40;99.90;;;;;;5065567;28;20511;-79
2021/12/03 00:21:52;;;;;;;6.05;3.22;;;-0.40;99.90;;;;;;5042395;28;20507;-78
2021/12/03 00:24:18;;;;;;;7.80;3.60;;;-0.40;99.90;;;;;;5064689;28;20036;-78
2021/12/03 00:26:43;;;;;;;9.43;4.57;;;-0.40;99.90;;;;;;5045597;28;20501;-80
2021/12/03 00:29:09;;;;;;;8.43;3.95;;;-0.40;99.90;;;;;;5041735;28;20123;-81
2021/12/03 00:31:35;;;;;;;6.57;3.45;;;-0.40;99.90;;;;;;5057969;28;20400;-83
2021/12/03 00:34:01;;;;;;;9.10;4.05;;;-0.40;99.90;;;;;;5061576;28;20033;-79
2021/12/03 00:36:28;;;;;;;7.03;3.42;;;-0.50;99.90;;;;;;5060302;28;20400;-81
2021/12/03 00:38:58;;;;;;;6.50;3.63;;;-0.50;99.90;;;;;;5064337;28;20044;-78
2021/12/03 00:41:25;;;;;;;6.05;3.20;;;-0.70;99.90;;;;;;5061374;28;20021;-82
2021/12/03 00:43:52;;;;;;;7.95;3.33;;;-0.70;99.90;;;;;;5064726;28;20035;-80
2021/12/03 00:46:21;;;;;;;6.60;3.45;;;-0.70;99.90;;;;;;5065168;28;20049;-80
2021/12/03 00:48:50;;;;;;;7.05;3.95;;;-0.70;99.90;;;;;;5064633;28;20020;-82
2021/12/03 00:51:18;;;;;;;6.68;3.75;;;-0.60;99.90;;;;;;5059321;28;20502;-80
2021/12/03 00:53:45;;;;;;;8.10;3.67;;;-0.60;99.90;;;;;;5067260;28;20044;-78
2021/12/03 00:56:12;;;;;;;10.25;4.10;;;-0.60;99.90;;;;;;5068371;28;20123;-82
2021/12/03 00:58:38;;;;;;;6.18;3.85;;;-0.60;99.90;;;;;;5044103;28;20525;-78
2021/12/03 01:01:05;;;;;;;6.32;3.53;;;-0.60;99.90;;;;;;5046747;28;20036;-78
2021/12/03 01:03:32;;;;;;;6.35;3.47;;;-0.60;99.90;;;;;;5044600;28;20052;-81
2021/12/03 01:05:58;;;;;;;7.70;4.18;;;-0.60;99.90;;;;;;5062030;28;20020;-81
2021/12/03 01:08:24;;;;;;;7.43;4.30;;;-0.60;99.90;;;;;;5047505;28;20100;-77
2021/12/03 01:10:49;;;;;;;8.90;3.90;;;-0.70;99.90;;;;;;5060940;28;20028;-80
2021/12/03 01:13:16;;;;;;;7.35;3.70;;;-0.60;99.90;;;;;;5064569;28;20024;-80
2021/12/03 01:15:43;;;;;;;9.82;4.15;;;-0.60;99.90;;;;;;5061191;28;20050;-76
2021/12/03 01:18:10;;;;;;;8.10;3.92;;;-0.60;99.90;;;;;;5047173;28;20164;-80
2021/12/03 01:20:37;;;;;;;8.63;4.57;;;-0.60;99.90;;;;;;5067201;28;20029;-78
2021/12/03 01:23:03;;;;;;;11.00;4.22;;;-0.70;99.90;;;;;;5063858;28;20029;-79
2021/12/03 01:25:31;;;;;;;7.80;3.90;;;-0.70;99.90;;;;;;5062514;28;20028;-77
2021/12/03 01:27:59;;;;;;;10.52;4.32;;;-0.70;99.90;;;;;;5064794;28;20028;-77
2021/12/03 01:30:25;;;;;;;10.32;4.57;;;-0.70;99.90;;;;;;5056366;28;20130;-79
2021/12/03 01:32:51;;;;;;;9.57;4.28;;;-0.60;99.90;;;;;;5063685;28;20025;-78
2021/12/03 01:35:18;;;;;;;7.65;4.00;;;-0.70;99.90;;;;;;5059657;28;20025;-77
2021/12/03 01:37:44;;;;;;;8.30;3.97;;;-0.60;99.90;;;;;;5042692;28;20029;-80
2021/12/03 01:40:15;;;;;;;10.98;4.80;;;-0.60;99.90;;;;;;5045424;28;20185;-79
2021/12/03 01:42:44;;;;;;;8.65;4.03;;;-0.60;99.90;;;;;;5045397;28;20024;-81
2021/12/03 01:45:11;;;;;;;8.30;5.00;;;-0.70;99.90;;;;;;5060923;28;20560;-80
2021/12/03 01:47:36;;;;;;;11.07;4.20;;;-0.80;99.90;;;;;;5046317;28;20039;-79
2021/12/03 01:50:04;;;;;;;8.30;4.25;;;-0.90;99.90;;;;;;5064756;28;20044;-80
2021/12/03 01:52:30;;;;;;;9.55;4.75;;;-1.00;99.90;;;;;;5043418;28;20406;-77
2021/12/03 01:54:59;;;;;;;11.73;4.38;;;-1.00;99.90;;;;;;5046155;28;20532;-80
2021/12/03 01:57:25;;;;;;;8.48;4.22;;;-0.90;99.90;;;;;;5044706;28;20078;-80
2021/12/03 01:59:51;;;;;;;8.95;4.43;;;-0.90;99.90;;;;;;5060523;28;20037;-80
2021/12/03 02:02:17;;;;;;;8.45;4.75;;;-0.90;99.90;;;;;;5043868;28;20042;-81
2021/12/03 02:04:42;;;;;;;9.07;4.20;;;-0.90;99.90;;;;;;5045520;28;20055;-80
2021/12/03 02:07:08;;;;;;;10.80;4.90;;;-0.90;99.90;;;;;;5046399;28;20060;-79
2021/12/03 02:09:34;;;;;;;9.23;4.68;;;-0.90;99.90;;;;;;5044012;28;20032;-79
2021/12/03 02:11:59;;;;;;;8.95;4.15;;;-0.90;99.90;;;;;;5045335;28;20035;-81
2021/12/03 02:14:25;;;;;;;8.60;4.53;;;-0.90;99.90;;;;;;5064317;28;20404;-78
2021/12/03 02:16:51;;;;;;;9.68;4.80;;;-0.90;99.90;;;;;;5063909;28;20103;-81
2021/12/03 02:19:17;;;;;;;8.13;3.67;;;-0.90;99.90;;;;;;5060850;28;20059;-79
2021/12/03 02:21:44;;;;;;;8.07;4.47;;;-0.80;99.90;;;;;;5060117;28;20067;-78
2021/12/03 02:24:10;;;;;;;11.50;4.90;;;-0.80;99.90;;;;;;5066842;28;20082;-79
2021/12/03 02:26:35;;;;;;;9.07;4.13;;;-0.90;99.90;;;;;;5061015;28;20161;-79
2021/12/03 02:29:02;;;;;;;11.20;4.47;;;-0.80;99.90;;;;;;5059452;28;20031;-80
2021/12/03 02:31:27;;;;;;;9.48;4.57;;;-0.90;99.90;;;;;;5061460;28;20032;-80
2021/12/03 02:33:54;;;;;;;9.40;4.10;;;-0.90;99.90;;;;;;5046386;28;20028;-79
2021/12/03 02:36:20;;;;;;;11.02;4.65;;;-1.00;99.90;;;;;;5080521;28;20111;-80
2021/12/03 02:38:46;;;;;;;8.75;4.90;;;-1.00;99.90;;;;;;5080067;28;20033;-79
2021/12/03 02:41:12;;;;;;;10.52;4.55;;;-1.00;99.90;;;;;;5050490;28;20060;-81
2021/12/03 02:43:39;;;;;;;11.50;4.63;;;-1.10;99.90;;;;;;5060647;28;20029;-78
2021/12/03 02:46:05;;;;;;;13.63;5.85;;;-1.00;99.90;;;;;;5062703;28;20052;-78
2021/12/03 02:48:32;;;;;;;12.00;5.65;;;-1.10;99.90;;;;;;5067510;28;20028;-80
2021/12/03 02:50:59;;;;;;;10.05;4.93;;;-1.10;99.90;;;;;;5058905;28;20080;-79
2021/12/03 02:53:25;;;;;;;10.05;4.80;;;-1.00;99.90;;;;;;5064980;28;20048;-79
2021/12/03 02:55:51;;;;;;;8.23;4.03;;;-1.00;99.90;;;;;;5064792;28;20052;-81
2021/12/03 02:58:18;;;;;;;13.07;5.05;;;-0.90;99.90;;;;;;5045013;28;20127;-81
2021/12/03 03:00:46;;;;;;;10.10;4.57;;;-0.80;99.90;;;;;;5066145;28;20072;-79
2021/12/03 03:03:11;;;;;;;12.52;5.40;;;-0.90;99.90;;;;;;5066942;28;20048;-78
2021/12/03 03:05:37;;;;;;;12.95;5.13;;;-0.80;99.90;;;;;;5063707;28;20083;-81
2021/12/03 03:08:04;;;;;;;12.73;5.35;;;-0.80;99.90;;;;;;5065061;28;20017;-78
2021/12/03 03:10:33;;;;;;;10.10;5.18;;;-0.70;99.90;;;;;;5064474;28;20024;-79
2021/12/03 03:13:00;;;;;;;8.48;5.05;;;-0.70;99.90;;;;;;5066516;28;20111;-77
2021/12/03 03:15:26;;;;;;;14.20;5.38;;;-0.70;99.90;;;;;;5067201;28;20491;-77
2021/12/03 03:17:52;;;;;;;11.07;5.05;;;-0.70;99.90;;;;;;5028841;28;20124;-80
2021/12/03 03:20:20;;;;;;;13.15;5.43;;;-0.80;99.90;;;;;;5063928;28;20104;-80
2021/12/03 03:22:47;;;;;;;9.75;5.00;;;-0.80;99.90;;;;;;5061022;28;20093;-83
2021/12/03 03:25:16;;;;;;;12.25;5.82;;;-0.90;99.90;;;;;;5063461;28;20032;-80
2021/12/03 03:27:42;;;;;;;11.13;5.03;;;-0.90;99.90;;;;;;5063216;28;20504;-79
2021/12/03 03:30:11;;;;;;;9.57;4.75;;;-0.90;99.90;;;;;;5067049;28;20028;-80
2021/12/03 03:32:38;;;;;;;10.30;5.63;;;-0.90;99.90;;;;;;5031476;28;20082;-80
2021/12/03 03:35:04;;;;;;;11.27;4.68;;;-0.90;99.90;;;;;;5046251;28;20040;-79
2021/12/03 03:37:30;;;;;;;8.70;4.57;;;-0.80;99.90;;;;;;5044673;28;20120;-80
2021/12/03 03:39:56;;;;;;;10.32;4.28;;;-0.80;99.90;;;;;;5043457;28;20100;-80
2021/12/03 03:42:21;;;;;;;15.25;5.22;;;-0.70;99.90;;;;;;5046106;28;20549;-80
2021/12/03 03:44:47;;;;;;;12.10;5.45;;;-0.60;99.90;;;;;;5023539;28;20048;-80
2021/12/03 03:47:13;;;;;;;10.63;4.70;;;-0.60;99.90;;;;;;5048409;28;20024;-78
2021/12/03 03:49:39;;;;;;;11.77;5.13;;;-0.70;99.90;;;;;;5045975;28;20025;-80
2021/12/03 03:52:06;;;;;;;11.90;5.68;;;-0.60;99.90;;;;;;5031098;28;20112;-79
2021/12/03 03:54:32;;;;;;;11.95;4.90;;;-0.60;99.90;;;;;;5046579;28;20025;-78
2021/12/03 03:56:59;;;;;;;10.95;5.25;;;-0.60;99.90;;;;;;5041724;28;20026;-78
2021/12/03 03:59:24;;;;;;;11.38;5.32;;;-0.60;99.90;;;;;;5039471;28;20439;-82
2021/12/03 04:01:51;;;;;;;9.00;4.63;;;-0.60;99.90;;;;;;5057516;28;20116;-79
2021/12/03 04:04:17;;;;;;;15.52;5.78;;;-0.60;99.90;;;;;;5065548;28;20028;-80
2021/12/03 04:06:44;;;;;;;10.45;5.10;;;-0.60;99.90;;;;;;5066684;28;20383;-82
2021/12/03 04:09:11;;;;;;;8.43;4.13;;;-0.60;99.90;;;;;;5080976;28;20025;-76
2021/12/03 04:11:37;;;;;;;9.07;4.20;;;-0.70;99.90;;;;;;5087858;28;20029;-77
2021/12/03 04:14:03;;;;;;;10.35;4.28;;;-0.70;99.90;;;;;;5072676;28;20035;-80
2021/12/03 04:16:30;;;;;;;13.07;4.50;;;-0.70;99.90;;;;;;5046375;28;20040;-81
2021/12/03 04:18:57;;;;;;;12.68;5.13;;;-0.80;99.90;;;;;;5062190;28;20056;-81
2021/12/03 04:21:22;;;;;;;10.13;4.30;;;-0.70;99.90;;;;;;5061944;28;20175;-80
2021/12/03 04:23:48;;;;;;;9.35;4.07;;;-0.70;99.90;;;;;;5065530;28;20576;-81
2021/12/03 04:26:14;;;;;;;11.73;5.55;;;-0.80;99.90;;;;;;5047291;28;20029;-81
2021/12/03 04:28:40;;;;;;;13.00;5.10;;;-0.80;99.90;;;;;;5062983;28;20510;-82
2021/12/03 04:31:06;;;;;;;10.98;5.32;;;-0.80;99.90;;;;;;5063143;28;20056;-80
2021/12/03 04:33:31;;;;;;;13.68;5.55;;;-0.80;99.90;;;;;;5063778;28;20104;-81
2021/12/03 04:35:57;;;;;;;10.00;5.55;;;-0.90;99.90;;;;;;5029605;28;20040;-80
2021/12/03 04:38:23;;;;;;;12.20;5.40;;;-1.00;99.90;;;;;;5063733;28;20051;-81
2021/12/03 04:40:49;;;;;;;10.60;4.70;;;-1.10;99.90;;;;;;5064951;28;20028;-81
2021/12/03 04:43:15;;;;;;;9.90;4.32;;;-1.20;99.90;;;;;;5060881;28;20054;-80
2021/12/03 04:45:41;;;;;;;10.88;5.30;;;-1.20;99.90;;;;;;5057442;28;20072;-80
2021/12/03 04:48:08;;;;;;;12.63;4.45;;;-1.40;99.90;;;;;;5043596;28;20030;-80
2021/12/03 04:50:37;;;;;;;9.93;4.57;;;-1.40;99.90;;;;;;5042992;28;20108;-82
2021/12/03 04:53:04;;;;;;;12.93;5.75;;;-1.50;99.90;;;;;;5043345;28;20025;-82
2021/12/03 04:55:29;;;;;;;11.60;4.35;;;-1.50;99.90;;;;;;5042226;28;20549;-81
2021/12/03 04:57:55;;;;;;;12.38;4.70;;;-1.50;99.90;;;;;;5044683;28;20095;-79
2021/12/03 05:00:26;;;;;;;9.25;4.40;;;-1.60;99.90;;;;;;5043300;28;20037;-82
2021/12/03 05:02:53;;;;;;;;;;;-1.60;99.90;;;;;;5022432;28;20083;-80
2021/12/03 05:05:19;;;;;;;8.38;3.92;;;-1.60;99.90;;;;;;5024800;28;19991;-81
2021/12/03 05:08:02;;;;;;;16.05;4.88;;;-1.70;99.90;;;;;;5020346;28;20026;-80
2021/12/03 05:10:30;;;;;;;9.43;3.25;;;-1.70;99.90;;;;;;5020910;28;20042;-80
2021/12/03 05:13:01;;;;;;;13.70;6.47;;;-1.70;99.90;;;;;;5027231;28;20029;-81
2021/12/03 05:15:28;;;;;;;11.60;4.05;;;-1.70;99.90;;;;;;5023178;28;20030;-84
2021/12/03 05:17:53;;;;;;;10.75;4.82;;;-1.70;99.90;;;;;;5023482;28;20087;-84
2021/12/03 05:20:19;;;;;;;12.43;4.80;;;-1.70;99.90;;;;;;5020055;28;20038;-86
2021/12/03 05:22:45;;;;;;;11.25;4.30;;;-1.70;99.90;;;;;;5025514;28;20034;-83
2021/12/03 05:25:11;;;;;;;13.27;5.93;;;-1.70;99.90;;;;;;5023404;28;20491;-84
2021/12/03 05:27:38;;;;;;;11.85;5.35;;;-1.60;99.90;;;;;;5027106;28;20140;-84
2021/12/03 05:30:05;;;;;;;13.10;4.68;;;-1.50;99.90;;;;;;5021616;28;20056;-84
2021/12/03 05:32:30;;;;;;;12.00;5.47;;;-1.40;99.90;;;;;;5041176;28;20040;-84
2021/12/03 05:34:56;;;;;;;9.95;3.90;;;-1.40;99.90;;;;;;5042059;28;20404;-83
2021/12/03 05:37:22;;;;;;;11.50;4.38;;;-1.30;99.90;;;;;;5044070;28;20025;-85
2021/12/03 05:39:48;;;;;;;10.82;5.15;;;-1.20;99.90;;;;;;5055926;28;20405;-83
2021/12/03 05:42:13;;;;;;;11.15;4.45;;;-1.20;99.90;;;;;;5041902;28;20044;-76
2021/12/03 05:44:39;;;;;;;12.85;5.47;;;-1.20;99.90;;;;;;5042862;28;20048;-76
2021/12/03 05:47:05;;;;;;;13.20;5.28;;;-1.20;99.90;;;;;;5060724;28;20013;-77
2021/12/03 05:49:31;;;;;;;14.70;5.43;;;-1.20;99.90;;;;;;5038467;28;20029;-79
2021/12/03 05:51:57;;;;;;;16.75;6.63;;;-1.20;99.90;;;;;;5040252;28;20199;-76
2021/12/03 05:54:23;;;;;;;14.18;6.50;;;-1.30;99.90;;;;;;5046080;28;20112;-77
2021/12/03 05:56:49;;;;;;;14.13;6.63;;;-1.30;99.90;;;;;;5055563;28;20493;-76
2021/12/03 05:59:14;;;;;;;13.00;5.40;;;-1.40;99.90;;;;;;5063148;28;20110;-76
2021/12/03 06:01:40;;;;;;;18.63;6.30;;;-1.40;99.90;;;;;;5060543;28;20514;-79
2021/12/03 06:04:06;;;;;;;18.27;6.28;;;-1.50;99.90;;;;;;5065972;28;20521;-81
2021/12/03 06:06:32;;;;;;;13.98;5.85;;;-1.50;99.90;;;;;;5066818;28;20054;-79
2021/12/03 06:08:58;;;;;;;17.33;5.70;;;-1.50;99.90;;;;;;5028913;28;20082;-80
2021/12/03 06:11:25;;;;;;;22.92;6.85;;;-1.60;99.90;;;;;;5055122;28;20502;-79
2021/12/03 06:13:51;;;;;;;14.15;5.80;;;-1.70;99.90;;;;;;5053703;28;20025;-77
2021/12/03 06:16:16;;;;;;;11.52;5.25;;;-1.80;99.90;;;;;;5035385;28;20028;-78
2021/12/03 06:18:42;;;;;;;17.70;5.53;;;-1.90;99.90;;;;;;5042007;28;20116;-79
2021/12/03 06:21:10;;;;;;;17.13;5.97;;;-2.00;99.90;;;;;;5055702;28;20024;-85
2021/12/03 06:23:36;;;;;;;17.65;7.18;;;-2.10;99.90;;;;;;5043212;28;20146;-78
2021/12/03 06:26:04;;;;;;;13.40;5.85;;;-2.10;99.90;;;;;;5056836;28;20025;-81
2021/12/03 06:28:34;;;;;;;19.17;8.57;;;-2.20;99.90;;;;;;5045931;28;20065;-81
2021/12/03 06:30:59;;;;;;;17.83;7.85;;;-2.20;99.90;;;;;;5059212;28;20112;-79
2021/12/03 06:33:25;;;;;;;21.30;7.55;;;-2.20;99.90;;;;;;5045641;28;20431;-79
2021/12/03 06:35:51;;;;;;;19.95;7.72;;;-2.20;99.90;;;;;;5044623;28;20518;-76
2021/12/03 06:38:18;;;;;;;15.70;6.47;;;-2.30;99.90;;;;;;5046904;28;20037;-82
2021/12/03 06:40:44;;;;;;;19.27;7.72;;;-2.40;99.90;;;;;;5044347;28;20036;-77
2021/12/03 06:43:10;;;;;;;21.65;7.40;;;-2.40;99.90;;;;;;5049113;28;20047;-89
2021/12/03 06:45:37;;;;;;;23.75;7.00;;;-2.40;99.90;;;;;;5045265;28;20037;-89
2021/12/03 06:48:03;;;;;;;26.45;8.60;;;-2.50;99.90;;;;;;5042866;28;20531;-81
2021/12/03 06:50:31;;;;;;;21.52;10.20;;;-2.50;99.90;;;;;;5046795;28;20518;-84
2021/12/03 06:53:03;;;;;;;20.58;7.70;;;-2.50;99.90;;;;;;5062614;28;20087;-84
2021/12/03 06:55:37;;;;;;;28.77;10.18;;;-2.60;99.90;;;;;;5044159;28;20030;-83
2021/12/03 06:58:03;;;;;;;23.35;8.05;;;-2.60;99.90;;;;;;5045516;28;20025;-82
2021/12/03 07:00:28;;;;;;;21.02;8.68;;;-2.70;99.90;;;;;;5043421;28;20053;-81
2021/12/03 07:02:54;;;;;;;23.15;10.05;;;-2.70;99.90;;;;;;5036447;28;20037;-84
2021/12/03 07:05:20;;;;;;;22.13;8.60;;;-2.70;99.90;;;;;;5048717;28;20033;-82
2021/12/03 07:07:46;;;;;;;237.70;25.10;;;-2.70;99.90;;;;;;5054790;28;20396;-82
2021/12/03 07:10:12;;;;;;;33.35;9.27;;;-2.60;99.90;;;;;;5037013;28;20029;-83
2021/12/03 07:12:38;;;;;;;22.30;9.63;;;-2.60;99.90;;;;;;5054440;28;20061;-83
2021/12/03 07:15:04;;;;;;;31.50;10.73;;;-2.60;99.90;;;;;;5053773;28;20508;-81
2021/12/03 07:17:32;;;;;;;30.83;9.45;;;-2.50;99.90;;;;;;5047986;28;20029;-80
2021/12/03 07:19:59;;;;;;;29.23;11.57;;;-2.50;99.90;;;;;;5037336;28;20108;-83
2021/12/03 07:22:29;;;;;;;36.88;11.82;;;-2.40;99.90;;;;;;5054309;28;20025;-84
2021/12/03 07:24:54;;;;;;;32.23;12.97;;;-2.40;99.90;;;;;;5051032;28;20025;-84
2021/12/03 07:27:21;;;;;;;40.03;12.07;;;-2.20;99.90;;;;;;5045952;28;20036;-83
2021/12/03 07:29:48;;;;;;;39.30;13.25;;;-2.20;99.90;;;;;;5054591;28;20047;-84
2021/12/03 07:32:22;;;;;;;31.13;12.00;;;-2.10;99.90;;;;;;5055154;28;20033;-81
2021/12/03 07:34:48;;;;;;;27.00;11.65;;;-2.10;99.90;;;;;;5063801;28;20484;-83
2021/12/03 07:37:14;;;;;;;35.85;14.00;;;-2.00;99.90;;;;;;5047070;28;20040;-79
2021/12/03 07:39:40;;;;;;;41.63;14.60;;;-2.00;99.90;;;;;;5064194;28;20024;-82
2021/12/03 07:42:07;;;;;;;42.05;13.95;;;-1.90;99.90;;;;;;5062629;28;20025;-79
2021/12/03 07:44:33;;;;;;;44.13;15.20;;;-1.90;99.90;;;;;;5064872;28;20048;-81
2021/12/03 07:46:59;;;;;;;53.20;18.73;;;-1.90;99.90;;;;;;5062653;28;20095;-80
2021/12/03 07:49:26;;;;;;;29.88;13.05;;;-1.90;99.90;;;;;;5063821;28;20117;-81
2021/12/03 07:51:53;;;;;;;45.53;19.10;;;-1.80;99.90;;;;;;5062331;28;20029;-79
2021/12/03 07:54:18;;;;;;;68.80;26.85;;;-1.90;99.90;;;;;;5064141;28;20051;-81
2021/12/03 07:56:45;;;;;;;37.72;17.33;;;-1.80;99.90;;;;;;5063088;28;20086;-81
2021/12/03 07:59:11;;;;;;;39.92;16.00;;;-1.90;99.90;;;;;;5046320;28;20025;-79
2021/12/03 08:01:40;;;;;;;34.40;15.32;;;-1.90;99.90;;;;;;5046925;28;20116;-79
2021/12/03 08:04:06;;;;;;;32.90;14.85;;;-1.90;99.90;;;;;;5064091;28;20537;-82
2021/12/03 08:06:31;;;;;;;32.65;12.68;;;-1.80;99.90;;;;;;5049162;28;20024;-81
2021/12/03 08:08:57;;;;;;;35.70;13.18;;;-1.80;99.90;;;;;;5058255;28;20033;-81
2021/12/03 08:11:23;;;;;;;39.92;14.10;;;-1.80;99.90;;;;;;5065357;28;20548;-80
2021/12/03 08:13:48;;;;;;;34.15;12.63;;;-1.80;99.90;;;;;;5028060;28;20033;-82
2021/12/03 08:16:14;;;;;;;31.98;12.73;;;-1.80;99.90;;;;;;5046701;28;20025;-79
2021/12/03 08:18:40;;;;;;;32.70;11.85;;;-1.80;99.90;;;;;;5045557;28;20043;-80
2021/12/03 08:21:05;;;;;;;35.15;12.98;;;-1.80;99.90;;;;;;5068265;28;20096;-78
2021/12/03 08:23:32;;;;;;;30.95;13.48;;;-1.80;99.90;;;;;;5095397;28;20036;-80
2021/12/03 08:25:58;;;;;;;24.73;11.52;;;-1.80;99.90;;;;;;5067840;28;20135;-81
2021/12/03 08:28:23;;;;;;;31.63;11.07;;;-1.70;99.90;;;;;;5061960;28;20044;-84
2021/12/03 08:30:49;;;;;;;30.92;12.10;;;-1.60;99.90;;;;;;5061205;28;20029;-82
2021/12/03 08:33:16;;;;;;;30.15;11.75;;;-1.50;99.90;;;;;;5063336;28;20475;-83
2021/12/03 08:35:41;;;;;;;27.65;11.98;;;-1.50;99.90;;;;;;5066652;28;20036;-80
2021/12/03 08:38:08;;;;;;;30.92;11.93;;;-1.40;99.90;;;;;;5047561;28;20078;-81
2021/12/03 08:40:34;;;;;;;34.10;11.93;;;-1.40;99.90;;;;;;5042507;28;20480;-84
2021/12/03 08:43:00;;;;;;;34.45;12.20;;;-1.40;99.90;;;;;;5046575;28;20041;-83
2021/12/03 08:45:26;;;;;;;30.67;13.55;;;-1.30;99.90;;;;;;5064362;28;20041;-83
2021/12/03 08:47:57;;;;;;;35.40;13.38;;;-1.30;99.90;;;;;;5043666;28;20025;-82
2021/12/03 08:54:48;;;;;;;28.48;12.93;;;-1.20;99.90;;;;;;5038349;28;20124;-79
2021/12/03 08:56:07;;;;;;;39.55;14.93;;;-1.10;99.90;;;;;;5060299;28;20032;-80
2021/12/03 08:58:33;;;;;;;33.50;13.15;;;-1.00;99.90;;;;;;5061151;28;20403;-79
2021/12/03 09:00:59;;;;;;;37.90;15.27;;;-0.90;99.90;;;;;;5044567;28;20056;-82
2021/12/03 09:03:26;;;;;;;34.63;14.50;;;-0.90;99.90;;;;;;5044767;28;20047;-80
2021/12/03 09:05:52;;;;;;;34.85;14.82;;;-0.90;99.90;;;;;;5040795;28;20120;-80
2021/12/03 09:08:17;;;;;;;35.45;13.23;;;-0.80;99.90;;;;;;5045313;28;20033;-78
2021/12/03 09:10:43;;;;;;;37.58;12.55;;;-0.90;99.90;;;;;;5043094;28;20556;-79
2021/12/03 09:13:09;;;;;;;35.97;14.30;;;-0.80;99.90;;;;;;5046099;28;20028;-78
2021/12/03 09:15:40;;;;;;;34.05;12.82;;;-0.80;99.90;;;;;;5045484;28;20037;-78
2021/12/03 09:21:09;;;;;;;28.38;12.57;;;-0.70;99.90;;;;;;5044131;28;20066;-79
2021/12/03 09:26:09;;;;;;;32.70;12.88;;;-0.60;99.90;;;;;;5036657;28;20091;-79
2021/12/03 09:28:37;;;;;;;41.33;13.20;;;-0.60;99.90;;;;;;5039936;28;20032;-80
2021/12/03 09:31:05;;;;;;;33.35;13.32;;;-0.70;99.90;;;;;;5058026;28;20036;-79
2021/12/03 09:33:33;;;;;;;32.53;13.70;;;-0.60;99.90;;;;;;5040536;28;20021;-78
2021/12/03 09:36:03;;;;;;;31.45;12.77;;;-0.60;99.90;;;;;;5044074;28;20032;-80
2021/12/03 09:38:34;;;;;;;30.87;13.73;;;-0.60;99.90;;;;;;5053791;28;20029;-81
2021/12/03 09:41:10;;;;;;;28.10;11.10;;;-0.60;99.90;;;;;;5054677;28;20271;-79
2021/12/03 09:43:40;;;;;;;34.00;13.00;;;-0.40;99.90;;;;;;5061123;28;20025;-81
2021/12/03 09:46:16;;;;;;;27.35;11.82;;;-0.50;99.90;;;;;;5023984;28;20045;-79
2021/12/03 09:51:16;;;;;;;27.60;11.93;;;-0.40;99.90;;;;;;5041735;28;20029;-81
2021/12/03 09:56:28;;;;;;;36.00;11.45;;;-0.50;99.90;;;;;;5043930;28;20036;-80
2021/12/03 10:01:38;;;;;;;31.20;10.90;;;-0.40;99.90;;;;;;5046444;28;20025;-81
2021/12/03 10:04:44;;;;;;;24.75;10.30;;;-0.30;99.90;;;;;;5056794;28;20041;-80
2021/12/03 10:12:56;;;;;;;25.65;12.05;;;-0.30;99.90;;;;;;5025759;28;20028;-81
2021/12/03 10:15:36;;;;;;;23.20;9.77;;;-0.30;99.90;;;;;;5063775;28;20032;-79
2021/12/03 10:18:18;;;;;;;37.85;11.80;;;-0.30;99.90;;;;;;5064173;28;20033;-83
2021/12/03 10:21:30;;;;;;;26.95;11.18;;;-0.30;99.90;;;;;;5061799;28;20123;-79
2021/12/03 10:34:12;;;;;;;30.63;10.55;;;-0.10;99.90;;;;;;5046674;28;20818;-79
2021/12/03 10:36:54;;;;;;;29.98;10.38;;;0.00;99.90;;;;;;5059528;28;20027;-80
2021/12/03 10:49:47;;;;;;;19.58;9.45;;;0.20;99.90;;;;;;5058621;28;20104;-80
2021/12/03 10:52:31;;;;;;;23.90;8.77;;;0.10;99.90;;;;;;5057293;28;20488;-79
2021/12/03 10:55:19;;;;;;;26.67;8.95;;;0.10;99.90;;;;;;5045545;28;20120;-79
2021/12/03 10:58:09;;;;;;;20.27;7.97;;;-0.10;99.90;;;;;;5051895;28;20044;-79
2021/12/03 11:58:20;;;;;;;11.15;5.15;;;0.50;99.90;;;;;;5044937;28;20033;-78
2021/12/03 12:15:30;;;;;;;12.27;4.75;;;0.50;99.90;;;;;;5049370;28;20091;-77
2021/12/03 12:56:11;;;;;;;9.80;4.75;;;0.80;99.90;;;;;;5044325;28;20044;-81
2021/12/03 13:58:49;;;;;;;13.57;6.00;;;0.90;99.90;;;;;;5044682;28;20040;-77
2021/12/03 14:00:48;;;;;;;17.95;6.10;;;0.60;99.90;;;;;;5044210;28;20112;-78
2021/12/03 14:04:36;;;;;;;18.45;6.22;;;0.50;99.90;;;;;;5039974;28;20124;-77
2021/12/03 14:44:31;;;;;;;14.95;6.68;;;0.10;99.90;;;;;;5049923;28;20088;-84
2021/12/03 14:55:37;;;;;;;25.48;11.65;;;0.20;99.90;;;;;;5043162;28;20034;-85
2021/12/03 14:58:08;;;;;;;14.25;6.50;;;0.10;99.90;;;;;;5046044;28;20436;-88
2021/12/03 15:00:47;;;;;;;12.77;5.50;;;0.10;99.90;;;;;;5047515;28;20473;-81
2021/12/03 15:08:37;;;;;;;14.05;6.25;;;-0.10;99.90;;;;;;5065451;28;20047;-79
2021/12/03 15:30:59;;;;;;;12.55;5.90;;;-0.20;99.90;;;;;;5054847;28;20047;-79
2021/12/03 16:08:09;;;;;;;13.70;6.90;;;-0.60;99.90;;;;;;5045098;28;20082;-84
2021/12/03 16:10:50;;;;;;;15.38;7.50;;;-0.70;99.90;;;;;;5045685;28;20049;-79
2021/12/03 16:24:06;;;;;;;22.52;7.85;;;-0.60;99.90;;;;;;5044288;28;20052;-78
2021/12/03 16:52:55;;;;;;;17.25;7.55;;;-0.70;99.90;;;;;;5027418;28;20473;-79
2021/12/03 16:55:21;;;;;;;13.80;6.80;;;-0.80;99.90;;;;;;5022062;28;20033;-80
2021/12/03 16:57:51;;;;;;;17.80;6.40;;;-0.80;99.90;;;;;;5025578;28;20041;-77
2021/12/03 17:00:29;;;;;;;19.08;8.10;;;-0.80;99.90;;;;;;5044064;28;20029;-79
2021/12/03 17:44:16;;;;;;;12.10;5.93;;;-0.80;99.90;;;;;;5014935;28;20037;-75
2021/12/03 17:51:48;;;;;;;15.02;6.70;;;-1.00;99.90;;;;;;5063067;28;20099;-82
2021/12/03 17:56:52;;;;;;;13.48;6.00;;;-1.10;99.90;;;;;;5044856;28;20492;-82
2021/12/03 17:59:22;;;;;;;13.95;6.43;;;-1.10;99.90;;;;;;5062343;28;20044;-81
2021/12/03 18:01:56;;;;;;;14.63;7.13;;;-1.20;99.90;;;;;;5063750;28;20036;-80
2021/12/03 18:04:38;;;;;;;14.32;6.25;;;-1.20;99.90;;;;;;5061722;28;20056;-82
2021/12/03 18:55:13;;;;;;;13.15;5.70;;;-1.40;99.90;;;;;;5043010;28;20032;-78
2021/12/03 18:57:15;;;;;;;11.52;5.35;;;-1.40;99.90;;;;;;5042220;28;20041;-78
2021/12/03 18:59:53;;;;;;;11.48;4.72;;;-1.40;99.90;;;;;;5059182;28;20038;-78
2021/12/03 19:02:21;;;;;;;13.35;6.95;;;-1.50;99.90;;;;;;5062785;28;20533;-78
2021/12/03 19:04:52;;;;;;;15.68;6.38;;;-1.60;99.90;;;;;;5059416;28;20117;-79
2021/12/03 19:07:26;;;;;;;13.43;5.53;;;-1.60;99.90;;;;;;5062601;28;20035;-78
2021/12/03 19:09:55;;;;;;;13.27;5.13;;;-1.50;99.90;;;;;;5065389;28;20040;-77
2021/12/03 19:12:24;;;;;;;12.43;6.18;;;-1.60;99.90;;;;;;5058984;28;20477;-77
2021/12/03 19:14:55;;;;;;;12.52;6.32;;;-1.60;99.90;;;;;;5060174;28;20099;-78
2021/12/03 19:17:23;;;;;;;15.65;7.72;;;-1.40;99.90;;;;;;5046218;28;20024;-76
2021/12/03 19:19:52;;;;;;;17.50;6.43;;;-1.60;99.90;;;;;;5062657;28;20033;-76
2021/12/03 19:22:19;;;;;;;13.07;5.77;;;-1.60;99.90;;;;;;5059435;28;20024;-77
2021/12/03 19:24:45;;;;;;;10.85;5.05;;;-1.70;99.90;;;;;;5061707;28;20051;-78
2021/12/03 19:27:11;;;;;;;13.00;5.53;;;-1.60;99.90;;;;;;5058623;28;20025;-76
2021/12/03 19:29:38;;;;;;;15.10;6.70;;;-1.70;99.90;;;;;;5064698;28;20021;-79
2021/12/03 19:32:05;;;;;;;13.80;6.63;;;-1.70;99.90;;;;;;5065172;28;20492;-75
2021/12/03 19:34:30;;;;;;;13.68;8.68;;;-1.70;99.90;;;;;;5066677;28;20446;-76
2021/12/03 19:36:57;;;;;;;15.07;8.80;;;-1.70;99.90;;;;;;5063928;28;20091;-80
2021/12/03 19:39:25;;;;;;;10.68;6.53;;;-1.70;99.90;;;;;;5060671;28;20040;-78
2021/12/03 19:44:59;;;;;;;9.52;5.72;;;-1.80;99.90;;;;;;4984006;28;20039;-79
2021/12/03 19:53:02;;;;;;;11.60;5.25;;;-1.60;99.90;;;;;;5069102;28;20028;-77
2021/12/03 19:55:29;;;;;;;12.30;6.38;;;-1.60;99.90;;;;;;5066756;28;20029;-77
2021/12/03 19:57:55;;;;;;;14.82;6.53;;;-1.50;99.90;;;;;;5063686;28;20040;-75
2021/12/03 20:00:25;;;;;;;13.30;6.75;;;-1.50;99.90;;;;;;5052799;28;20083;-79
2021/12/03 20:02:51;;;;;;;11.82;6.05;;;-1.50;99.90;;;;;;5071397;28;20032;-79
2021/12/03 20:05:17;;;;;;;10.98;5.72;;;-1.50;99.90;;;;;;5068525;28;20484;-79
2021/12/03 20:07:43;;;;;;;10.05;5.68;;;-1.50;99.90;;;;;;5065555;28;20039;-77
2021/12/03 20:10:15;;;;;;;14.15;6.35;;;-1.50;99.90;;;;;;5066338;28;20029;-76
2021/12/03 20:12:41;;;;;;;9.93;6.53;;;-1.40;99.90;;;;;;5062839;28;20087;-76
2021/12/03 20:15:10;;;;;;;12.05;5.95;;;-1.40;99.90;;;;;;5052052;28;20029;-77
2021/12/03 20:17:44;;;;;;;15.85;12.43;;;-1.30;99.90;;;;;;5066081;28;20065;-76
2021/12/03 20:20:10;;;;;;;12.00;6.38;;;-1.30;99.90;;;;;;5045921;28;20029;-78
2021/12/03 20:22:55;;;;;;;10.23;5.78;;;-1.20;99.90;;;;;;5062875;28;20490;-79
2021/12/03 20:28:35;;;;;;;10.85;4.50;;;-1.00;99.90;;;;;;5030869;28;20028;-79